DLH221 EDDG-EDLW
Flight info
| Callsign | DLH221 |
|---|---|
| Flight time | 0h 15m |
| Altitude | 7000 |
| Route | DOMEG2C DOMEG DOMEG2A |
| Aircraft | A339/H-SADE1E2E3GHIJ3J5M1P2RWXY/LB2D1 |
Departure
| Time | 2026-04-09 22:47 |
|---|---|
| Airport | Münster Osnabrück Airport (EDDG) |
Arrival
| Time | 2026-04-09 23:03 |
|---|---|
| Airport | Dortmund Airport (EDLW) |
| Time | Latitude | Longitude | Altitude | Speed | Heading |
|---|---|---|---|---|---|
| 2026-04-09 22:23 | 52.13169 | 7.69315 | 173 ft | 0 kts | 189° |
| 2026-04-09 22:36 | 52.13168 | 7.69315 | 173 ft | 0 kts | 189° |
| 2026-04-09 22:38 | 52.13175 | 7.69317 | 173 ft | 3 kts | 189° |
| 2026-04-09 22:38 | 52.13192 | 7.69321 | 159 ft | 3 kts | 189° |
| 2026-04-09 22:38 | 52.13210 | 7.69324 | 173 ft | 3 kts | 203° |
| 2026-04-09 22:39 | 52.13226 | 7.69337 | 173 ft | 3 kts | 238° |
| 2026-04-09 22:39 | 52.13232 | 7.69351 | 172 ft | 0 kts | 251° |
| 2026-04-09 22:42 | 52.13233 | 7.69355 | 172 ft | 1 kts | 248° |
| 2026-04-09 22:43 | 52.13235 | 7.69364 | 172 ft | 1 kts | 249° |
| 2026-04-09 22:43 | 52.13236 | 7.69366 | 172 ft | 0 kts | 249° |
| 2026-04-09 22:43 | 52.13232 | 7.69339 | 172 ft | 7 kts | 262° |
| 2026-04-09 22:43 | 52.13308 | 7.69291 | 172 ft | 19 kts | 343° |
| 2026-04-09 22:44 | 52.13433 | 7.69256 | 171 ft | 12 kts | 23° |
| 2026-04-09 22:44 | 52.13471 | 7.69353 | 173 ft | 10 kts | 66° |
| 2026-04-09 22:44 | 52.13501 | 7.69469 | 173 ft | 12 kts | 68° |
| 2026-04-09 22:44 | 52.13529 | 7.69608 | 173 ft | 13 kts | 74° |
| 2026-04-09 22:45 | 52.13558 | 7.69763 | 172 ft | 16 kts | 72° |
| 2026-04-09 22:45 | 52.13601 | 7.69940 | 171 ft | 18 kts | 66° |
| 2026-04-09 22:45 | 52.13696 | 7.70024 | 170 ft | 17 kts | 359° |
| 2026-04-09 22:45 | 52.13738 | 7.70007 | 170 ft | 0 kts | 337° |
| 2026-04-09 22:46 | 52.13739 | 7.70007 | 170 ft | 0 kts | 337° |
| 2026-04-09 22:46 | 52.13740 | 7.70005 | 170 ft | 3 kts | 337° |
| 2026-04-09 22:46 | 52.13763 | 7.69897 | 173 ft | 11 kts | 259° |
| 2026-04-09 22:47 | 52.13705 | 7.69629 | 175 ft | 64 kts | 251° |
| 2026-04-09 22:47 | 52.13443 | 7.68416 | 201 ft | 157 kts | 250° |
| 2026-04-09 22:47 | 52.13043 | 7.66521 | 654 ft | 196 kts | 249° |
| 2026-04-09 22:47 | 52.12547 | 7.64275 | 1363 ft | 222 kts | 247° |
| 2026-04-09 22:48 | 52.12024 | 7.61856 | 2378 ft | 229 kts | 249° |
| 2026-04-09 22:48 | 52.11496 | 7.59392 | 3319 ft | 231 kts | 250° |
| 2026-04-09 22:48 | 52.10954 | 7.56804 | 3476 ft | 250 kts | 251° |
| 2026-04-09 22:48 | 52.10193 | 7.54266 | 3107 ft | 250 kts | 231° |
| 2026-04-09 22:49 | 52.08852 | 7.52564 | 2742 ft | 250 kts | 205° |
| 2026-04-09 22:49 | 52.07169 | 7.51977 | 2357 ft | 247 kts | 185° |
| 2026-04-09 22:49 | 52.05444 | 7.51757 | 1977 ft | 248 kts | 184° |
| 2026-04-09 22:49 | 52.03830 | 7.51493 | 2419 ft | 196 kts | 186° |
| 2026-04-09 22:50 | 52.02484 | 7.51297 | 3578 ft | 199 kts | 188° |
| 2026-04-09 22:50 | 52.01002 | 7.51077 | 3983 ft | 232 kts | 187° |
| 2026-04-09 22:50 | 51.99262 | 7.51147 | 3736 ft | 260 kts | 174° |
| 2026-04-09 22:50 | 51.97489 | 7.51651 | 3375 ft | 262 kts | 172° |
| 2026-04-09 22:51 | 51.95687 | 7.52181 | 2990 ft | 258 kts | 172° |
| 2026-04-09 22:51 | 51.93866 | 7.52691 | 2871 ft | 284 kts | 172° |
| 2026-04-09 22:51 | 51.91889 | 7.53230 | 3737 ft | 281 kts | 173° |
| 2026-04-09 22:51 | 51.90024 | 7.53738 | 4880 ft | 271 kts | 174° |
| 2026-04-09 22:52 | 51.88158 | 7.54234 | 5682 ft | 274 kts | 174° |
| 2026-04-09 22:52 | 51.86261 | 7.54730 | 6490 ft | 277 kts | 174° |
| 2026-04-09 22:52 | 51.84347 | 7.55230 | 7236 ft | 282 kts | 174° |
| 2026-04-09 22:52 | 51.82395 | 7.55739 | 8008 ft | 286 kts | 174° |
| 2026-04-09 22:53 | 51.80421 | 7.56254 | 8764 ft | 290 kts | 174° |
| 2026-04-09 22:53 | 51.78403 | 7.56780 | 9482 ft | 296 kts | 174° |
| 2026-04-09 22:53 | 51.76350 | 7.57317 | 10242 ft | 300 kts | 174° |
| 2026-04-09 22:53 | 51.74254 | 7.57862 | 10549 ft | 321 kts | 174° |
| 2026-04-09 22:54 | 51.71956 | 7.58456 | 10769 ft | 343 kts | 174° |
| 2026-04-09 22:54 | 51.69529 | 7.58931 | 11272 ft | 350 kts | 179° |
| 2026-04-09 22:54 | 51.67087 | 7.59236 | 11967 ft | 353 kts | 179° |
| 2026-04-09 22:54 | 51.64635 | 7.59553 | 12660 ft | 356 kts | 179° |
| 2026-04-09 22:55 | 51.62178 | 7.59876 | 13331 ft | 360 kts | 179° |
| 2026-04-09 22:55 | 51.59638 | 7.60211 | 13995 ft | 364 kts | 179° |
| 2026-04-09 22:55 | 51.57140 | 7.60636 | 14667 ft | 366 kts | 169° |
| 2026-04-09 22:55 | 51.55023 | 7.62746 | 15793 ft | 359 kts | 129° |
| 2026-04-09 22:56 | 51.54126 | 7.66273 | 17368 ft | 330 kts | 92° |
| 2026-04-09 22:56 | 51.54015 | 7.69889 | 18323 ft | 326 kts | 97° |
| 2026-04-09 22:56 | 51.53477 | 7.73474 | 18718 ft | 338 kts | 109° |
| 2026-04-09 22:56 | 51.52454 | 7.76926 | 19168 ft | 343 kts | 120° |
| 2026-04-09 22:57 | 51.51459 | 7.80287 | 20200 ft | 327 kts | 110° |
| 2026-04-09 22:57 | 51.50753 | 7.83761 | 20439 ft | 322 kts | 101° |
| 2026-04-09 22:57 | 51.50849 | 7.87128 | 20302 ft | 293 kts | 66° |
| 2026-04-09 22:57 | 51.51921 | 7.89722 | 19952 ft | 272 kts | 32° |
| 2026-04-09 22:58 | 51.52996 | 7.90646 | 19624 ft | 259 kts | 7° |
| 2026-04-09 22:58 | 51.54706 | 7.90453 | 19040 ft | 246 kts | 329° |
| 2026-04-09 22:58 | 51.56068 | 7.88890 | 18597 ft | 239 kts | 322° |
| 2026-04-09 22:58 | 51.57724 | 7.87935 | 17025 ft | 280 kts | 352° |
| 2026-04-09 22:59 | 51.59709 | 7.87149 | 14741 ft | 323 kts | 322° |
| 2026-04-09 22:59 | 51.60568 | 7.83955 | 13756 ft | 331 kts | 256° |
| 2026-04-09 22:59 | 51.59318 | 7.81008 | 12770 ft | 324 kts | 234° |
| 2026-04-09 22:59 | 51.57160 | 7.80004 | 12119 ft | 341 kts | 159° |
| 2026-04-09 23:00 | 51.55956 | 7.81246 | 10897 ft | 0 kts | 206° |
| 2026-04-09 23:00 | 51.58039 | 7.78430 | 3417 ft | 239 kts | 242° |
| 2026-04-09 23:00 | 51.57222 | 7.76293 | 3436 ft | 212 kts | 239° |
| 2026-04-09 23:00 | 51.56510 | 7.74361 | 3422 ft | 193 kts | 239° |
| 2026-04-09 23:01 | 51.55825 | 7.72557 | 3046 ft | 181 kts | 239° |
| 2026-04-09 23:01 | 51.55214 | 7.70924 | 2664 ft | 166 kts | 239° |
| 2026-04-09 23:01 | 51.54634 | 7.69346 | 2074 ft | 166 kts | 238° |
| 2026-04-09 23:01 | 51.54072 | 7.67724 | 1497 ft | 164 kts | 240° |
| 2026-04-09 23:02 | 51.53570 | 7.66117 | 1071 ft | 158 kts | 240° |
| 2026-04-09 23:02 | 51.53043 | 7.64631 | 746 ft | 149 kts | 237° |
| 2026-04-09 23:02 | 51.52548 | 7.63237 | 501 ft | 134 kts | 239° |
| 2026-04-09 23:02 | 51.52118 | 7.62036 | 410 ft | 113 kts | 240° |
| 2026-04-09 23:03 | 51.51887 | 7.61382 | 414 ft | 21 kts | 240° |
| 2026-04-09 23:03 | 51.51863 | 7.61315 | 416 ft | 0 kts | 240° |
| 2026-04-09 23:03 | 51.51862 | 7.61312 | 416 ft | 2 kts | 240° |
| 2026-04-09 23:05 | 51.51824 | 7.61202 | 415 ft | 25 kts | 241° |
| 2026-04-09 23:06 | 51.51761 | 7.61020 | 418 ft | 0 kts | 241° |